createdAt,value
2018-07-08T00:01:52.637Z,18.36
2018-07-08T00:04:21.842Z,18.39
2018-07-08T00:06:54.755Z,18.39
2018-07-08T00:09:23.983Z,18.29
2018-07-08T00:11:53.198Z,18.22
2018-07-08T00:14:22.451Z,18.22
2018-07-08T00:16:51.664Z,18.09
2018-07-08T00:19:20.851Z,17.97
2018-07-08T00:21:50.073Z,17.96
2018-07-08T00:24:19.330Z,17.98
2018-07-08T00:26:48.562Z,18.02
2018-07-08T00:29:17.746Z,18.09
2018-07-08T00:31:46.971Z,18.16
2018-07-08T00:34:16.163Z,18.14
2018-07-08T00:36:45.363Z,18.01
2018-07-08T00:39:14.603Z,17.98
2018-07-08T00:41:43.589Z,17.92
2018-07-08T00:44:12.797Z,17.82
2018-07-08T00:46:42.023Z,17.87
2018-07-08T00:49:11.296Z,17.84
2018-07-08T00:51:40.503Z,17.75
2018-07-08T00:54:09.727Z,17.80
2018-07-08T00:56:38.940Z,17.76
2018-07-08T00:59:08.263Z,17.75
2018-07-08T01:01:37.490Z,17.60
2018-07-08T01:04:06.709Z,17.59
2018-07-08T01:06:35.994Z,17.48
2018-07-08T01:09:06.209Z,17.43
2018-07-08T01:11:35.467Z,17.39
2018-07-08T01:14:04.655Z,17.40
2018-07-08T01:16:33.890Z,17.34
2018-07-08T01:19:03.089Z,17.28
2018-07-08T01:21:32.299Z,17.34
2018-07-08T01:24:01.515Z,17.30
2018-07-08T01:26:31.005Z,17.25
2018-07-08T01:29:00.202Z,17.24
2018-07-08T01:31:29.419Z,17.18
2018-07-08T01:33:58.671Z,17.08
2018-07-08T01:36:27.882Z,17.15
2018-07-08T01:38:57.094Z,17.20
2018-07-08T01:41:26.296Z,17.10
2018-07-08T01:43:55.594Z,17.03
2018-07-08T01:46:24.804Z,16.97
2018-07-08T01:48:54.103Z,16.94
2018-07-08T01:51:23.339Z,16.94
2018-07-08T01:53:52.830Z,16.93
2018-07-08T01:56:22.031Z,16.89
2018-07-08T01:58:51.398Z,16.97
2018-07-08T02:01:20.591Z,17.05
2018-07-08T02:03:49.856Z,17.11
2018-07-08T02:06:19.047Z,17.14
2018-07-08T02:08:48.542Z,17.22
2018-07-08T02:11:17.787Z,17.30
2018-07-08T02:13:46.786Z,17.31
2018-07-08T02:16:15.779Z,17.40
2018-07-08T02:18:45.352Z,17.46
2018-07-08T02:21:14.567Z,17.50
2018-07-08T02:23:43.951Z,17.53
2018-07-08T02:26:13.172Z,17.54
2018-07-08T02:28:42.504Z,17.57
2018-07-08T02:31:11.678Z,17.54
2018-07-08T02:33:40.895Z,17.47
2018-07-08T02:36:10.121Z,17.45
2018-07-08T02:38:39.342Z,17.46
2018-07-08T02:41:08.595Z,17.42
2018-07-08T02:43:37.817Z,17.39
2018-07-08T02:46:07.083Z,17.37
2018-07-08T02:48:36.298Z,17.40
2018-07-08T02:51:05.519Z,17.36
2018-07-08T02:53:34.726Z,17.41
2018-07-08T02:56:03.961Z,17.45
2018-07-08T02:58:33.268Z,17.46
2018-07-08T03:01:02.562Z,17.45
2018-07-08T03:03:31.902Z,17.43
2018-07-08T03:06:01.191Z,17.44
2018-07-08T03:08:30.395Z,17.43
2018-07-08T03:10:59.624Z,17.36
2018-07-08T03:13:28.937Z,17.32
2018-07-08T03:15:58.231Z,17.26
2018-07-08T03:18:27.508Z,17.20
2018-07-08T03:20:56.733Z,17.13
2018-07-08T03:23:25.931Z,17.11
2018-07-08T03:25:55.159Z,17.07
2018-07-08T03:28:24.366Z,17.04
2018-07-08T03:30:53.763Z,17.02
2018-07-08T03:33:23.193Z,17.00
2018-07-08T03:35:52.450Z,16.88
2018-07-08T03:38:22.096Z,16.84
2018-07-08T03:40:51.395Z,16.77
2018-07-08T03:43:20.948Z,16.71
2018-07-08T03:45:49.934Z,16.64
2018-07-08T03:48:19.159Z,16.68
2018-07-08T03:50:48.471Z,16.66
2018-07-08T03:53:17.686Z,16.65
2018-07-08T03:55:46.959Z,16.60
2018-07-08T03:58:16.175Z,16.54
2018-07-08T04:00:45.510Z,16.54
2018-07-08T04:03:14.724Z,16.56
2018-07-08T04:05:43.926Z,16.61
2018-07-08T04:08:13.124Z,16.64
2018-07-08T04:10:42.331Z,16.66
2018-07-08T04:13:11.554Z,16.71
2018-07-08T04:15:40.763Z,16.79
2018-07-08T04:18:10.220Z,16.86
2018-07-08T04:20:40.155Z,16.92
2018-07-08T04:23:09.529Z,17.00
2018-07-08T04:25:38.738Z,17.07
2018-07-08T04:28:07.935Z,17.21
2018-07-08T04:30:37.135Z,17.17
2018-07-08T04:33:06.491Z,17.25
2018-07-08T04:35:35.690Z,17.26
2018-07-08T04:38:04.927Z,17.38
2018-07-08T04:40:34.143Z,17.36
2018-07-08T04:43:03.366Z,17.50
2018-07-08T04:45:32.628Z,17.64
2018-07-08T04:48:01.838Z,17.82
2018-07-08T04:50:31.038Z,17.79
2018-07-08T04:53:00.237Z,18.08
2018-07-08T04:55:29.442Z,19.02
2018-07-08T04:57:58.672Z,19.37
2018-07-08T05:00:27.920Z,19.39
2018-07-08T05:02:56.882Z,19.14
2018-07-08T05:05:26.067Z,18.93
2018-07-08T05:07:55.322Z,18.81
2018-07-08T05:10:24.585Z,18.94
2018-07-08T05:12:53.545Z,18.80
2018-07-08T05:15:22.738Z,19.11
2018-07-08T05:17:51.938Z,19.71
2018-07-08T05:20:21.197Z,20.01
2018-07-08T05:22:50.377Z,20.14
2018-07-08T05:25:19.583Z,20.60
2018-07-08T05:27:48.838Z,21.11
2018-07-08T05:30:17.798Z,20.93
2018-07-08T05:32:47.027Z,21.32
2018-07-08T05:35:16.242Z,21.39
2018-07-08T05:37:45.465Z,21.02
2018-07-08T05:40:14.662Z,21.04
2018-07-08T05:42:43.879Z,21.61
2018-07-08T05:45:13.154Z,22.15
2018-07-08T05:47:42.362Z,21.52
2018-07-08T05:50:11.681Z,22.02
2018-07-08T05:52:40.822Z,22.38
2018-07-08T05:55:10.115Z,22.15
2018-07-08T05:57:39.300Z,21.56
2018-07-08T06:00:08.963Z,21.48
2018-07-08T06:02:38.194Z,22.01
2018-07-08T06:05:07.459Z,22.19
2018-07-08T06:07:36.841Z,22.03
2018-07-08T06:10:06.243Z,22.45
2018-07-08T06:12:35.568Z,22.64
2018-07-08T06:15:04.967Z,22.36
2018-07-08T06:17:34.194Z,22.27
2018-07-08T06:20:03.446Z,21.75
2018-07-08T06:22:32.678Z,22.18
2018-07-08T06:25:01.810Z,22.62
2018-07-08T06:27:31.249Z,22.58
2018-07-08T06:30:00.553Z,22.45
2018-07-08T06:32:29.597Z,22.68
2018-07-08T06:34:58.902Z,22.91
2018-07-08T06:37:28.305Z,22.72
2018-07-08T06:39:57.587Z,22.21
2018-07-08T06:42:26.948Z,22.50
2018-07-08T06:44:56.298Z,23.09
2018-07-08T06:47:25.615Z,22.61
2018-07-08T06:49:54.921Z,21.80
2018-07-08T06:52:24.331Z,21.66
2018-07-08T06:54:53.643Z,22.51
2018-07-08T06:57:22.936Z,22.91
2018-07-08T06:59:52.340Z,23.22
2018-07-08T07:02:21.610Z,22.53
2018-07-08T07:04:50.925Z,22.01
2018-07-08T07:07:20.267Z,21.93
2018-07-08T07:09:49.640Z,22.33
2018-07-08T07:12:19.859Z,22.77
2018-07-08T07:14:48.998Z,22.52
2018-07-08T07:17:18.468Z,22.74
2018-07-08T07:19:47.915Z,22.93
2018-07-08T07:22:17.242Z,23.28
2018-07-08T07:24:46.576Z,23.25
2018-07-08T07:27:15.985Z,22.34
2018-07-08T07:29:45.431Z,22.51
2018-07-08T07:32:14.530Z,22.38
2018-07-08T07:34:43.904Z,22.80
2018-07-08T07:37:13.181Z,23.15
2018-07-08T07:39:42.586Z,23.22
2018-07-08T07:42:11.985Z,22.92
2018-07-08T07:44:41.340Z,23.19
2018-07-08T07:47:10.624Z,23.46
2018-07-08T07:49:40.045Z,23.78
2018-07-08T07:52:09.320Z,23.60
2018-07-08T07:54:38.703Z,23.47
2018-07-08T07:57:08.055Z,23.17
2018-07-08T07:59:37.363Z,23.13
2018-07-08T08:02:06.982Z,23.49
2018-07-08T08:04:36.358Z,23.47
2018-07-08T08:07:05.855Z,24.01
2018-07-08T08:09:35.127Z,23.92
2018-07-08T08:12:04.483Z,24.11
2018-07-08T08:14:33.828Z,23.85
2018-07-08T08:17:03.193Z,23.69
2018-07-08T08:19:39.311Z,24.28
2018-07-08T08:22:08.625Z,24.65
2018-07-08T08:24:37.873Z,24.84
2018-07-08T08:27:07.324Z,23.86
2018-07-08T08:29:36.619Z,24.31
2018-07-08T08:32:05.968Z,24.36
2018-07-08T08:34:52.471Z,24.41
2018-07-08T08:37:23.225Z,24.26
2018-07-08T08:39:53.390Z,24.41
2018-07-08T08:42:22.518Z,24.10
2018-07-08T08:44:52.395Z,24.67
2018-07-08T08:47:22.048Z,25.05
2018-07-08T08:49:52.014Z,24.85
2018-07-08T08:52:21.383Z,24.44
2018-07-08T08:54:51.210Z,24.58
2018-07-08T08:57:20.659Z,24.73
2018-07-08T08:59:49.937Z,25.21
2018-07-08T09:02:19.331Z,24.74
2018-07-08T09:04:52.217Z,25.12
2018-07-08T09:07:22.372Z,24.82
2018-07-08T09:09:57.324Z,25.14
2018-07-08T09:12:28.916Z,25.45
2018-07-08T09:14:58.369Z,25.56
2018-07-08T09:17:27.704Z,25.68
2018-07-08T09:19:58.734Z,25.46
2018-07-08T09:22:29.196Z,25.80
2018-07-08T09:25:00.579Z,25.81
2018-07-08T09:27:31.214Z,25.80
2018-07-08T09:30:01.546Z,25.56
2018-07-08T09:32:31.063Z,25.91
2018-07-08T09:35:03.061Z,25.45
2018-07-08T09:37:32.362Z,25.18
2018-07-08T09:40:01.395Z,25.27
2018-07-08T09:42:31.151Z,25.11
2018-07-08T09:45:02.100Z,24.85
2018-07-08T09:47:33.670Z,25.12
2018-07-08T09:50:03.865Z,25.30
2018-07-08T09:52:34.919Z,25.09
2018-07-08T09:55:05.676Z,25.40
2018-07-08T09:57:35.067Z,25.73
2018-07-08T10:00:05.009Z,25.52
2018-07-08T10:02:39.494Z,24.94
2018-07-08T10:05:08.914Z,25.61
2018-07-08T10:07:38.956Z,25.53
2018-07-08T10:10:12.713Z,25.46
2018-07-08T10:12:42.640Z,25.92
2018-07-08T10:15:12.072Z,25.57
2018-07-08T10:17:41.503Z,25.31
2018-07-08T10:20:10.871Z,25.73
2018-07-08T10:22:40.561Z,25.38
2018-07-08T10:25:10.915Z,25.75
2018-07-08T10:28:15.468Z,26.42
2018-07-08T10:30:47.841Z,26.22
2018-07-08T10:33:19.500Z,26.20
2018-07-08T10:36:04.395Z,26.29
2018-07-08T10:38:35.547Z,26.64
2018-07-08T10:41:05.071Z,26.82
2018-07-08T10:43:35.830Z,26.88
2018-07-08T10:46:07.190Z,26.48
2018-07-08T10:49:09.273Z,26.52
2018-07-08T10:51:42.670Z,26.23
2018-07-08T10:54:13.464Z,26.41
2018-07-08T10:56:45.857Z,25.94
2018-07-08T10:59:16.882Z,26.06
2018-07-08T11:01:47.838Z,26.51
2018-07-08T11:04:18.836Z,26.60
2018-07-08T11:06:49.829Z,26.46
2018-07-08T11:09:20.675Z,27.07
2018-07-08T11:11:51.413Z,27.01
2018-07-08T11:14:23.733Z,26.78
2018-07-08T11:16:56.019Z,26.62
2018-07-08T11:19:28.320Z,26.80
2018-07-08T11:22:12.560Z,27.04
2018-07-08T11:24:50.686Z,27.46
2018-07-08T11:27:41.657Z,27.40
2018-07-08T11:30:17.026Z,27.87
2018-07-08T11:32:46.567Z,27.39
2018-07-08T11:35:16.273Z,27.87
2018-07-08T11:37:46.109Z,26.37
2018-07-08T11:40:15.660Z,26.90
2018-07-08T11:42:45.867Z,26.62
2018-07-08T11:45:17.059Z,27.35
2018-07-08T11:47:47.492Z,27.59
2018-07-08T11:50:17.976Z,27.22
2018-07-08T11:52:48.525Z,26.34
2018-07-08T11:55:19.395Z,26.20
2018-07-08T11:57:51.213Z,26.63
2018-07-08T12:00:26.525Z,26.66
2018-07-08T12:02:59.123Z,26.93
2018-07-08T12:05:30.480Z,27.55
2018-07-08T12:08:04.461Z,27.75
2018-07-08T12:10:35.489Z,28.18
2018-07-08T12:13:07.991Z,28.35
2018-07-08T12:15:38.190Z,28.51
2018-07-08T12:18:08.634Z,28.55
2018-07-08T12:20:39.192Z,28.23
2018-07-08T12:23:09.363Z,28.26
2018-07-08T12:25:39.480Z,28.59
2018-07-08T12:28:09.601Z,27.47
2018-07-08T12:30:39.736Z,27.22
2018-07-08T12:33:10.815Z,26.48
2018-07-08T12:35:41.006Z,27.48
2018-07-08T12:38:12.940Z,27.56
2018-07-08T12:40:42.704Z,27.65
2018-07-08T12:43:14.617Z,27.69
2018-07-08T12:45:45.556Z,27.59
2018-07-08T12:48:15.816Z,27.39
2018-07-08T12:50:48.138Z,27.56
2018-07-08T12:53:19.649Z,27.97
2018-07-08T12:55:52.079Z,27.69
2018-07-08T12:58:22.394Z,27.87
2018-07-08T13:00:52.624Z,28.36
2018-07-08T13:03:22.938Z,27.98
2018-07-08T13:05:53.146Z,27.39
2018-07-08T13:08:23.140Z,27.56
2018-07-08T13:10:53.161Z,27.46
2018-07-08T13:13:23.114Z,27.51
2018-07-08T13:15:53.190Z,27.42
2018-07-08T13:18:23.224Z,28.26
2018-07-08T13:20:53.993Z,27.28
2018-07-08T13:23:24.094Z,27.77
2018-07-08T13:25:54.098Z,28.10
2018-07-08T13:28:24.120Z,28.39
2018-07-08T13:30:54.169Z,28.71
2018-07-08T13:33:24.771Z,28.03
2018-07-08T13:35:55.021Z,27.09
2018-07-08T13:38:24.990Z,27.22
2018-07-08T13:40:55.109Z,27.44
2018-07-08T13:43:25.095Z,27.39
2018-07-08T13:45:55.464Z,26.78
2018-07-08T13:48:25.689Z,27.35
2018-07-08T13:50:55.985Z,28.13
2018-07-08T13:53:26.744Z,28.13
2018-07-08T13:55:56.937Z,27.89
2018-07-08T13:58:26.903Z,28.35
2018-07-08T14:00:56.974Z,27.83
2018-07-08T14:03:27.035Z,28.01
2018-07-08T14:05:56.921Z,28.04
2018-07-08T14:08:27.963Z,27.65
2018-07-08T14:10:57.973Z,27.80
2018-07-08T14:13:28.213Z,28.17
2018-07-08T14:15:57.866Z,28.00
2018-07-08T14:18:27.706Z,28.18
2018-07-08T14:20:57.627Z,27.92
2018-07-08T14:23:27.527Z,27.71
2018-07-08T14:25:57.429Z,27.55
2018-07-08T14:28:28.683Z,27.83
2018-07-08T14:30:58.397Z,27.98
2018-07-08T14:33:29.241Z,28.11
2018-07-08T14:35:59.056Z,28.42
2018-07-08T14:38:28.746Z,28.03
2018-07-08T14:40:58.722Z,28.03
2018-07-08T14:43:28.875Z,27.92
2018-07-08T14:46:00.094Z,27.73
2018-07-08T14:48:29.999Z,27.88
2018-07-08T14:50:59.981Z,28.00
2018-07-08T14:53:30.130Z,27.53
2018-07-08T14:55:59.999Z,28.18
2018-07-08T14:58:29.799Z,27.83
2018-07-08T15:00:59.943Z,27.02
2018-07-08T15:03:30.820Z,27.71
2018-07-08T15:06:00.655Z,27.62
2018-07-08T15:08:30.914Z,27.69
2018-07-08T15:11:00.614Z,27.27
2018-07-08T15:13:30.507Z,27.86
2018-07-08T15:16:00.659Z,27.93
2018-07-08T15:18:30.443Z,28.01
2018-07-08T15:21:00.307Z,28.15
2018-07-08T15:23:30.105Z,28.21
2018-07-08T15:26:00.273Z,28.13
2018-07-08T15:28:30.232Z,27.76
2018-07-08T15:31:01.065Z,27.62
2018-07-08T15:33:31.070Z,27.84
2018-07-08T15:36:01.219Z,27.89
2018-07-08T15:38:32.605Z,27.88
2018-07-08T15:41:02.432Z,27.80
2018-07-08T15:43:32.427Z,27.46
2018-07-08T15:46:02.273Z,27.63
2018-07-08T15:48:33.301Z,27.74
2018-07-08T15:51:03.759Z,27.82
2018-07-08T15:53:33.732Z,27.97
2018-07-08T15:56:03.722Z,28.27
2018-07-08T15:58:33.544Z,27.73
2018-07-08T16:01:03.532Z,27.38
2018-07-08T16:03:33.515Z,27.42
2018-07-08T16:06:03.810Z,27.66
2018-07-08T16:08:33.816Z,27.50
2018-07-08T16:11:03.786Z,27.32
2018-07-08T16:13:34.635Z,27.52
2018-07-08T16:16:04.712Z,27.47
2018-07-08T16:18:34.879Z,27.57
2018-07-08T16:21:05.286Z,26.96
2018-07-08T16:23:35.312Z,27.16
2018-07-08T16:26:05.089Z,27.32
2018-07-08T16:28:34.485Z,27.25
2018-07-08T16:31:04.070Z,27.35
2018-07-08T16:33:33.411Z,27.33
2018-07-08T16:36:02.786Z,26.92
2018-07-08T16:38:32.049Z,27.01
2018-07-08T16:41:01.369Z,26.79
2018-07-08T16:43:30.637Z,26.73
2018-07-08T16:46:00.794Z,26.76
2018-07-08T16:48:30.119Z,26.90
2018-07-08T16:50:59.473Z,26.71
2018-07-08T16:53:28.771Z,28.17
2018-07-08T16:55:58.100Z,29.35
2018-07-08T16:58:27.395Z,30.30
2018-07-08T17:00:56.732Z,31.01
2018-07-08T17:03:25.991Z,30.92
2018-07-08T17:05:55.351Z,31.68
2018-07-08T17:08:24.728Z,31.47
2018-07-08T17:10:53.758Z,31.91
2018-07-08T17:13:23.063Z,32.50
2018-07-08T17:15:52.415Z,32.37
2018-07-08T17:18:22.345Z,32.15
2018-07-08T17:20:51.835Z,30.83
2018-07-08T17:23:21.198Z,30.09
2018-07-08T17:25:50.633Z,28.69
2018-07-08T17:28:19.967Z,28.13
2018-07-08T17:30:49.301Z,28.38
2018-07-08T17:33:18.839Z,27.83
2018-07-08T17:35:47.848Z,26.97
2018-07-08T17:38:17.185Z,26.45
2018-07-08T17:40:46.544Z,26.47
2018-07-08T17:43:15.950Z,26.71
2018-07-08T17:45:45.343Z,26.44
2018-07-08T17:48:14.651Z,26.18
2018-07-08T17:50:44.011Z,25.90
2018-07-08T17:53:13.328Z,25.61
2018-07-08T17:55:42.681Z,25.41
2018-07-08T17:58:11.956Z,25.32
2018-07-08T18:00:41.243Z,25.26
2018-07-08T18:03:10.602Z,25.21
2018-07-08T18:05:40.139Z,25.10
2018-07-08T18:08:09.519Z,25.04
2018-07-08T18:10:38.900Z,25.30
2018-07-08T18:13:08.555Z,25.84
2018-07-08T18:15:38.560Z,25.71
2018-07-08T18:18:08.219Z,25.46
2018-07-08T18:20:38.358Z,25.52
2018-07-08T18:23:07.795Z,25.42
2018-07-08T18:25:37.140Z,25.93
2018-07-08T18:28:06.532Z,25.61
2018-07-08T18:30:36.726Z,25.17
2018-07-08T18:33:06.710Z,24.95
2018-07-08T18:35:36.104Z,24.67
2018-07-08T18:38:05.563Z,24.45
2018-07-08T18:40:34.970Z,24.24
2018-07-08T18:43:04.379Z,24.05
2018-07-08T18:45:33.750Z,23.92
2018-07-08T18:48:02.783Z,23.75
2018-07-08T18:50:32.115Z,23.74
2018-07-08T18:53:01.429Z,23.53
2018-07-08T18:55:30.778Z,23.40
2018-07-08T18:58:00.265Z,23.30
2018-07-08T19:00:29.765Z,23.07
2018-07-08T19:02:59.183Z,22.98
2018-07-08T19:05:28.479Z,22.98
2018-07-08T19:07:57.826Z,22.99
2018-07-08T19:10:27.311Z,22.89
2018-07-08T19:12:56.771Z,22.63
2018-07-08T19:15:26.271Z,22.53
2018-07-08T19:17:55.780Z,22.33
2018-07-08T19:20:25.239Z,22.22
2018-07-08T19:22:54.694Z,22.04
2018-07-08T19:25:24.272Z,22.03
2018-07-08T19:27:53.709Z,21.97
2018-07-08T19:30:23.155Z,21.78
2018-07-08T19:32:52.688Z,21.63
2018-07-08T19:35:22.205Z,21.48
2018-07-08T19:37:51.660Z,21.24
2018-07-08T19:40:21.234Z,21.00
2018-07-08T19:42:50.739Z,20.84
2018-07-08T19:45:20.372Z,20.65
2018-07-08T19:47:50.078Z,20.51
2018-07-08T19:50:19.616Z,20.41
2018-07-08T19:52:49.133Z,20.38
2018-07-08T19:55:18.590Z,20.33
2018-07-08T19:57:48.153Z,20.25
2018-07-08T20:00:17.655Z,20.08
2018-07-08T20:02:47.100Z,19.93
2018-07-08T20:05:16.658Z,19.80
2018-07-08T20:07:46.504Z,19.71
2018-07-08T20:10:16.078Z,19.57
2018-07-08T20:12:45.636Z,19.48
2018-07-08T20:15:15.127Z,19.40
2018-07-08T20:17:45.067Z,19.35
2018-07-08T20:20:15.244Z,19.38
2018-07-08T20:22:44.673Z,19.21
2018-07-08T20:25:14.413Z,19.08
2018-07-08T20:27:44.272Z,18.98
2018-07-08T20:30:13.829Z,18.96
2018-07-08T20:32:43.112Z,18.93
2018-07-08T20:35:12.519Z,18.91
2018-07-08T20:37:41.853Z,18.78
2018-07-08T20:40:11.200Z,18.68
2018-07-08T20:42:40.676Z,18.61
2018-07-08T20:45:10.139Z,18.62
2018-07-08T20:47:39.556Z,18.57
2018-07-08T20:50:08.981Z,18.48
2018-07-08T20:52:38.463Z,18.44
2018-07-08T20:55:07.947Z,18.35
2018-07-08T20:57:37.512Z,18.33
2018-07-08T21:00:06.696Z,18.32
2018-07-08T21:02:36.096Z,18.22
2018-07-08T21:05:05.461Z,18.19
2018-07-08T21:07:34.857Z,18.16
2018-07-08T21:10:04.285Z,18.09
2018-07-08T21:12:33.599Z,17.98
2018-07-08T21:15:06.310Z,17.94
2018-07-08T21:17:35.641Z,17.90
2018-07-08T21:20:05.012Z,17.89
2018-07-08T21:22:34.555Z,17.95
2018-07-08T21:25:03.903Z,17.91
2018-07-08T21:27:33.478Z,17.89
2018-07-08T21:30:03.050Z,17.76
2018-07-08T21:32:32.364Z,17.64
2018-07-08T21:35:01.655Z,17.66
2018-07-08T21:37:30.968Z,17.63
2018-07-08T21:40:00.254Z,17.59
2018-07-08T21:42:29.574Z,17.57
2018-07-08T21:44:58.881Z,17.54
2018-07-08T21:47:27.938Z,17.56
2018-07-08T21:49:57.306Z,17.50
2018-07-08T21:52:26.619Z,17.43
2018-07-08T21:54:55.999Z,17.42
2018-07-08T21:57:25.356Z,17.25
2018-07-08T21:59:54.482Z,17.13
2018-07-08T22:02:23.798Z,17.09
2018-07-08T22:04:53.031Z,17.10
2018-07-08T22:07:23.497Z,17.19
2018-07-08T22:09:54.037Z,17.16
2018-07-08T22:12:23.275Z,17.11
2018-07-08T22:14:52.238Z,17.24
2018-07-08T22:17:21.482Z,17.23
2018-07-08T22:19:50.736Z,17.14
2018-07-08T22:22:20.002Z,17.01
2018-07-08T22:24:49.244Z,16.89
2018-07-08T22:27:18.500Z,16.84
2018-07-08T22:29:47.775Z,16.80
2018-07-08T22:32:17.006Z,16.76
2018-07-08T22:34:46.392Z,16.71
2018-07-08T22:37:15.677Z,16.62
2018-07-08T22:39:44.908Z,16.53
2018-07-08T22:42:14.188Z,16.49
2018-07-08T22:44:43.443Z,16.44
2018-07-08T22:47:12.667Z,16.58
2018-07-08T22:49:41.875Z,16.56
2018-07-08T22:52:11.103Z,16.63
2018-07-08T22:54:40.342Z,16.66
2018-07-08T22:57:09.583Z,16.75
2018-07-08T22:59:55.852Z,16.74
2018-07-08T23:02:38.280Z,16.63
2018-07-08T23:05:07.512Z,16.67
2018-07-08T23:07:36.763Z,16.75
2018-07-08T23:10:05.979Z,16.69
2018-07-08T23:12:35.251Z,16.79
2018-07-08T23:15:04.611Z,16.78
2018-07-08T23:17:33.907Z,16.81
2018-07-08T23:20:03.391Z,16.85
2018-07-08T23:22:49.862Z,16.85
2018-07-08T23:25:19.073Z,16.98
2018-07-08T23:27:48.341Z,16.96
2018-07-08T23:30:17.563Z,16.96
2018-07-08T23:32:46.839Z,16.94
2018-07-08T23:35:16.161Z,16.82
2018-07-08T23:37:45.461Z,16.75
2018-07-08T23:40:14.785Z,16.66
2018-07-08T23:42:44.801Z,16.53
2018-07-08T23:45:19.489Z,16.37
2018-07-08T23:47:48.754Z,16.37
2018-07-08T23:50:18.011Z,16.39
2018-07-08T23:52:46.991Z,16.36
2018-07-08T23:55:16.248Z,16.24
2018-07-08T23:57:45.510Z,16.14
